Aérodrome :
LOGIN :

S'inscrire | Disclaimer

   EN    FR    IT 

 










Légende :    VFR   VFR Marginal   IFR   IFR Intensif   IFR Très Intensif
Visi : 
Plafond : 
>= 8 km
>= 3000ft
5 à 8 km
1000 à 3000 ft
1500m à 5 km
500 à 1000 ft
800 à 1500m
200 à 500 ft
< 800m
< 200 ft
Symboles :   Orages  Brouillard  Fortes neiges  Fortes précipitations  Vent > 20 kt
SIGMETs :   Divers  Orages  Givrage  Turbulence  Onde Orograph.  Cendres Volcan.






- Altitude de l'aérodrome : 659 ft
- Code IATA : LGG


EBLG - Liège

DERNIER METAR :
  • 220120Z 20009KT 160V220 9999 BKN015 11/09 Q1022 TEMPO BKN012

METARs EXPIRÉS :
  • 220050Z 19008KT 9999 BKN020 11/09 Q1022 TEMPO BKN015
  • 220020Z 19008KT 150V220 9999 BKN018 11/09 Q1022 TEMPO BKN015
  • 212350Z 19008KT 9999 BKN017 11/08 Q1022 TEMPO BKN015
  • 212320Z 18009KT 140V200 9999 BKN017 11/08 Q1022 TEMPO BKN015
  • 212250Z 19009KT 9999 BKN017 11/08 Q1022 TEMPO BKN015
  • 212220Z 19009KT 9999 BKN022 12/08 Q1022 NOSIG

TAF TAF EBLG
Valide du 22 à 00h jusqu'au 23 à 06h UTC


212300Z 2200/2306 21006KT 9999 SCT012 BKN018
PROB30
TEMPO 2202/2208 4000 BR BKN007



MET'MAP, la Météo Aéronautique d'un coup d'oeil ! - Copyright ORBIFLY Décembre 2007 - Disclaimer

ORBIFLY MET'MAP TEAM :

Programmation & Développement : Alexandra Zaïnal
Conception & Développement : Baudouin d'Aumeries
Co-Programmation & Développement : Marc-Olivier Méhu
Soutien technique & logistique : Manuel Goepfert

Contact : metmap@orbifly.com




SOURCES & CREDITS :

   NOAA